createdAt,value
2019-04-10T00:00:35.070Z,998.06
2019-04-10T00:01:34.659Z,998.06
2019-04-10T00:02:34.648Z,998.04
2019-04-10T00:03:37.953Z,998.05
2019-04-10T00:04:35.621Z,998.04
2019-04-10T00:05:34.614Z,998.07
2019-04-10T00:06:34.620Z,998.05
2019-04-10T00:07:34.593Z,998.04
2019-04-10T00:08:34.592Z,998.04
2019-04-10T00:09:34.964Z,998.04
2019-04-10T00:10:34.564Z,998.08
2019-04-10T00:11:34.639Z,998.03
2019-04-10T00:12:34.547Z,998.04
2019-04-10T00:13:34.530Z,998.05
2019-04-10T00:14:34.592Z,998.03
2019-04-10T00:15:34.747Z,998.02
2019-04-10T00:16:34.493Z,998.04
2019-04-10T00:17:35.388Z,998.01
2019-04-10T00:18:34.474Z,998.05
2019-04-10T00:19:35.719Z,998.07
2019-04-10T00:20:34.459Z,998.06
2019-04-10T00:21:35.478Z,998.09
2019-04-10T00:22:34.456Z,998.07
2019-04-10T00:23:35.275Z,998.07
2019-04-10T00:24:34.432Z,998.10
2019-04-10T00:25:34.979Z,998.11
2019-04-10T00:26:34.391Z,998.12
2019-04-10T00:27:34.670Z,998.12
2019-04-10T00:28:34.364Z,998.12
2019-04-10T00:29:34.392Z,998.12
2019-04-10T00:30:35.215Z,998.09
2019-04-10T00:31:34.336Z,998.13
2019-04-10T00:32:34.329Z,998.14
2019-04-10T00:33:34.673Z,998.10
2019-04-10T00:34:34.307Z,998.15
2019-04-10T00:35:35.188Z,998.13
2019-04-10T00:36:35.197Z,998.16
2019-04-10T00:37:35.197Z,998.14
2019-04-10T00:38:34.258Z,998.14
2019-04-10T00:39:34.883Z,998.14
2019-04-10T00:40:35.085Z,998.13
2019-04-10T00:41:34.426Z,998.14
2019-04-10T00:42:34.858Z,998.17
2019-04-10T00:43:35.014Z,998.14
2019-04-10T00:44:34.198Z,998.18
2019-04-10T00:45:34.211Z,998.22
2019-04-10T00:46:34.662Z,998.20
2019-04-10T00:47:35.109Z,998.19
2019-04-10T00:48:34.253Z,998.19
2019-04-10T00:49:34.141Z,998.19
2019-04-10T00:50:34.775Z,998.18
2019-04-10T00:51:35.170Z,998.11
2019-04-10T00:52:34.479Z,998.17
2019-04-10T00:53:34.920Z,998.20
2019-04-10T00:54:34.904Z,998.18
2019-04-10T00:55:34.078Z,998.20
2019-04-10T00:56:34.794Z,998.15
2019-04-10T00:57:34.071Z,998.16
2019-04-10T00:58:34.044Z,998.17
2019-04-10T00:59:34.472Z,998.19
2019-04-10T01:00:36.447Z,998.17
2019-04-10T01:01:34.091Z,998.15
2019-04-10T01:02:34.525Z,998.14
2019-04-10T01:03:33.985Z,998.12
2019-04-10T01:04:34.177Z,998.17
2019-04-10T01:05:33.972Z,998.15
2019-04-10T01:06:33.957Z,998.13
2019-04-10T01:07:39.748Z,998.14
2019-04-10T01:08:34.947Z,998.13
2019-04-10T01:09:33.927Z,998.17
2019-04-10T01:10:34.585Z,998.14
2019-04-10T01:11:34.893Z,998.13
2019-04-10T01:12:34.231Z,998.10
2019-04-10T01:13:34.653Z,998.11
2019-04-10T01:14:33.990Z,998.08
2019-04-10T01:15:34.437Z,998.10
2019-04-10T01:16:33.851Z,998.09
2019-04-10T01:17:34.686Z,998.12
2019-04-10T01:18:33.827Z,998.18
2019-04-10T01:19:34.362Z,998.13
2019-04-10T01:20:33.807Z,998.13
2019-04-10T01:21:34.627Z,998.14
2019-04-10T01:22:33.789Z,998.15
2019-04-10T01:23:33.795Z,998.16
2019-04-10T01:24:33.780Z,998.18
2019-04-10T01:25:34.617Z,998.16
2019-04-10T01:26:33.739Z,998.16
2019-04-10T01:27:34.115Z,998.21
2019-04-10T01:28:33.722Z,998.13
2019-04-10T01:29:33.707Z,998.15
2019-04-10T01:30:34.726Z,998.15
2019-04-10T01:31:33.684Z,998.18
2019-04-10T01:32:34.212Z,998.16
2019-04-10T01:33:33.665Z,998.15
2019-04-10T01:34:33.768Z,998.17
2019-04-10T01:35:34.234Z,998.15
2019-04-10T01:36:33.652Z,998.17
2019-04-10T01:37:46.658Z,998.21
2019-04-10T01:38:35.577Z,998.22
2019-04-10T01:39:34.649Z,998.21
2019-04-10T01:40:33.596Z,998.23
2019-04-10T01:41:34.239Z,998.22
2019-04-10T01:42:33.595Z,998.22
2019-04-10T01:43:33.561Z,998.21
2019-04-10T01:44:33.545Z,998.23
2019-04-10T01:45:33.534Z,998.19
2019-04-10T01:46:35.746Z,998.14
2019-04-10T01:47:33.519Z,998.20
2019-04-10T01:48:34.523Z,998.20
2019-04-10T01:49:33.636Z,998.20
2019-04-10T01:50:33.482Z,998.19
2019-04-10T01:51:33.489Z,998.20
2019-04-10T01:52:33.467Z,998.18
2019-04-10T01:53:33.581Z,998.17
2019-04-10T01:54:33.472Z,998.16
2019-04-10T01:55:34.255Z,998.14
2019-04-10T01:56:35.147Z,998.15
2019-04-10T01:57:34.562Z,998.12
2019-04-10T01:58:33.401Z,998.15
2019-04-10T01:59:34.059Z,998.18
2019-04-10T02:00:33.398Z,998.13
2019-04-10T02:01:34.582Z,998.13
2019-04-10T02:02:33.624Z,998.15
2019-04-10T02:03:34.071Z,998.15
2019-04-10T02:04:33.339Z,998.13
2019-04-10T02:05:33.569Z,998.11
2019-04-10T02:06:33.670Z,998.14
2019-04-10T02:07:34.080Z,998.15
2019-04-10T02:08:34.101Z,998.17
2019-04-10T02:09:33.283Z,998.17
2019-04-10T02:10:34.246Z,998.22
2019-04-10T02:11:34.197Z,998.14
2019-04-10T02:12:33.255Z,998.15
2019-04-10T02:13:33.851Z,998.17
2019-04-10T02:14:33.232Z,998.18
2019-04-10T02:15:34.225Z,998.15
2019-04-10T02:16:33.206Z,998.12
2019-04-10T02:17:33.219Z,998.15
2019-04-10T02:18:33.221Z,998.12
2019-04-10T02:19:33.181Z,998.14
2019-04-10T02:20:33.180Z,998.09
2019-04-10T02:21:34.007Z,998.15
2019-04-10T02:22:33.168Z,998.09
2019-04-10T02:23:33.136Z,998.19
2019-04-10T02:24:33.393Z,998.16
2019-04-10T02:25:33.117Z,998.20
2019-04-10T02:26:33.853Z,998.16
2019-04-10T02:27:34.249Z,998.10
2019-04-10T02:28:33.393Z,998.10
2019-04-10T02:29:33.564Z,998.14
2019-04-10T02:30:34.664Z,998.12
2019-04-10T02:31:34.302Z,998.10
2019-04-10T02:32:34.392Z,998.12
2019-04-10T02:33:33.600Z,998.11
2019-04-10T02:34:33.020Z,998.11
2019-04-10T02:35:34.059Z,998.08
2019-04-10T02:36:34.462Z,998.09
2019-04-10T02:37:33.263Z,998.06
2019-04-10T02:38:49.167Z,998.12
2019-04-10T02:39:40.148Z,998.16
2019-04-10T02:40:33.956Z,998.13
2019-04-10T02:41:34.474Z,998.14
2019-04-10T02:42:34.345Z,998.15
2019-04-10T02:43:33.663Z,998.17
2019-04-10T02:44:33.165Z,998.16
2019-04-10T02:45:34.232Z,998.17
2019-04-10T02:46:33.207Z,998.18
2019-04-10T02:47:32.886Z,998.16
2019-04-10T02:48:33.803Z,998.14
2019-04-10T02:49:32.861Z,998.15
2019-04-10T02:50:33.298Z,998.18
2019-04-10T02:51:32.842Z,998.15
2019-04-10T02:52:33.071Z,998.16
2019-04-10T02:53:32.818Z,998.16
2019-04-10T02:54:33.575Z,998.17
2019-04-10T02:55:33.417Z,998.13
2019-04-10T02:56:32.792Z,998.21
2019-04-10T02:57:34.802Z,998.20
2019-04-10T02:58:34.324Z,998.21
2019-04-10T02:59:33.532Z,998.19
2019-04-10T03:00:33.809Z,998.22
2019-04-10T03:01:33.503Z,998.18
2019-04-10T03:02:33.531Z,998.23
2019-04-10T03:03:34.165Z,998.21
2019-04-10T03:04:33.105Z,998.24
2019-04-10T03:05:34.452Z,998.23
2019-04-10T03:06:33.581Z,998.24
2019-04-10T03:07:33.795Z,998.23
2019-04-10T03:08:46.799Z,998.27
2019-04-10T03:09:49.494Z,998.21
2019-04-10T03:10:40.770Z,998.25
2019-04-10T03:11:35.176Z,998.29
2019-04-10T03:12:33.996Z,998.28
2019-04-10T03:13:33.740Z,998.36
2019-04-10T03:14:32.802Z,998.37
2019-04-10T03:15:33.838Z,998.33
2019-04-10T03:16:32.577Z,998.36
2019-04-10T03:17:33.272Z,998.37
2019-04-10T03:18:32.733Z,998.33
2019-04-10T03:19:32.547Z,998.40
2019-04-10T03:20:32.531Z,998.36
2019-04-10T03:21:33.308Z,998.37
2019-04-10T03:22:32.591Z,998.36
2019-04-10T03:23:33.444Z,998.37
2019-04-10T03:24:32.484Z,998.37
2019-04-10T03:25:33.023Z,998.38
2019-04-10T03:26:32.467Z,998.33
2019-04-10T03:27:32.453Z,998.37
2019-04-10T03:28:33.449Z,998.39
2019-04-10T03:29:32.453Z,998.34
2019-04-10T03:30:34.236Z,998.39
2019-04-10T03:31:34.234Z,998.41
2019-04-10T03:32:36.424Z,998.41
2019-04-10T03:33:36.053Z,998.34
2019-04-10T03:34:37.789Z,998.39
2019-04-10T03:35:34.538Z,998.40
2019-04-10T03:36:32.363Z,998.37
2019-04-10T03:37:32.351Z,998.41
2019-04-10T03:38:32.336Z,998.40
2019-04-10T03:39:34.799Z,998.34
2019-04-10T03:40:32.324Z,998.38
2019-04-10T03:41:33.177Z,998.39
2019-04-10T03:42:32.849Z,998.37
2019-04-10T03:43:32.288Z,998.37
2019-04-10T03:44:32.574Z,998.42
2019-04-10T03:45:32.755Z,998.42
2019-04-10T03:46:33.203Z,998.44
2019-04-10T03:47:33.411Z,998.41
2019-04-10T03:48:33.356Z,998.42
2019-04-10T03:49:32.230Z,998.42
2019-04-10T03:50:32.217Z,998.44
2019-04-10T03:51:32.465Z,998.50
2019-04-10T03:52:32.186Z,998.48
2019-04-10T03:53:32.194Z,998.49
2019-04-10T03:54:32.265Z,998.45
2019-04-10T03:55:32.717Z,998.49
2019-04-10T03:56:32.142Z,998.50
2019-04-10T03:57:32.135Z,998.49
2019-04-10T03:58:32.124Z,998.53
2019-04-10T03:59:32.642Z,998.53
2019-04-10T04:00:32.175Z,998.51
2019-04-10T04:01:33.158Z,998.50
2019-04-10T04:02:32.084Z,998.49
2019-04-10T04:03:32.952Z,998.53
2019-04-10T04:04:32.058Z,998.49
2019-04-10T04:05:32.833Z,998.51
2019-04-10T04:06:32.064Z,998.50
2019-04-10T04:07:32.651Z,998.49
2019-04-10T04:08:32.072Z,998.53
2019-04-10T04:09:32.009Z,998.54
2019-04-10T04:10:32.865Z,998.51
2019-04-10T04:11:31.983Z,998.57
2019-04-10T04:12:32.837Z,998.55
2019-04-10T04:13:31.969Z,998.57
2019-04-10T04:14:32.604Z,998.53
2019-04-10T04:15:31.947Z,998.53
2019-04-10T04:16:31.930Z,998.54
2019-04-10T04:17:32.529Z,998.53
2019-04-10T04:18:31.913Z,998.52
2019-04-10T04:19:32.441Z,998.47
2019-04-10T04:20:31.918Z,998.53
2019-04-10T04:21:32.080Z,998.53
2019-04-10T04:22:32.672Z,998.54
2019-04-10T04:23:31.959Z,998.57
2019-04-10T04:24:31.845Z,998.58
2019-04-10T04:25:32.480Z,998.54
2019-04-10T04:26:31.830Z,998.59
2019-04-10T04:27:31.819Z,998.54
2019-04-10T04:28:32.050Z,998.59
2019-04-10T04:29:32.490Z,998.57
2019-04-10T04:30:32.097Z,998.62
2019-04-10T04:31:31.792Z,998.60
2019-04-10T04:32:31.766Z,998.64
2019-04-10T04:33:31.986Z,998.66
2019-04-10T04:34:31.762Z,998.65
2019-04-10T04:35:31.736Z,998.65
2019-04-10T04:36:31.734Z,998.70
2019-04-10T04:37:31.709Z,998.69
2019-04-10T04:38:32.302Z,998.72
2019-04-10T04:39:32.899Z,998.74
2019-04-10T04:40:31.685Z,998.72
2019-04-10T04:41:31.694Z,998.73
2019-04-10T04:42:31.913Z,998.72
2019-04-10T04:43:32.693Z,998.77
2019-04-10T04:44:31.642Z,998.74
2019-04-10T04:45:31.637Z,998.78
2019-04-10T04:46:32.414Z,998.79
2019-04-10T04:47:31.627Z,998.81
2019-04-10T04:48:31.857Z,998.81
2019-04-10T04:49:31.582Z,998.82
2019-04-10T04:50:31.571Z,998.83
2019-04-10T04:51:31.585Z,998.82
2019-04-10T04:52:32.685Z,998.78
2019-04-10T04:53:32.238Z,998.81
2019-04-10T04:54:31.533Z,998.78
2019-04-10T04:55:31.522Z,998.76
2019-04-10T04:56:31.764Z,998.78
2019-04-10T04:57:34.185Z,998.78
2019-04-10T04:58:31.506Z,998.84
2019-04-10T04:59:32.446Z,998.85
2019-04-10T05:00:32.005Z,998.88
2019-04-10T05:01:31.820Z,998.86
2019-04-10T05:02:32.342Z,998.85
2019-04-10T05:03:31.431Z,998.88
2019-04-10T05:04:32.407Z,998.91
2019-04-10T05:05:31.427Z,998.95
2019-04-10T05:06:31.421Z,998.96
2019-04-10T05:07:31.395Z,998.94
2019-04-10T05:08:32.303Z,998.97
2019-04-10T05:09:36.905Z,999.01
2019-04-10T05:10:33.490Z,999.04
2019-04-10T05:11:31.364Z,999.11
2019-04-10T05:12:31.840Z,999.09
2019-04-10T05:13:31.757Z,999.09
2019-04-10T05:14:31.515Z,999.07
2019-04-10T05:15:31.303Z,999.14
2019-04-10T05:16:31.300Z,999.13
2019-04-10T05:17:31.287Z,999.16
2019-04-10T05:18:31.731Z,999.17
2019-04-10T05:19:31.268Z,999.21
2019-04-10T05:20:42.216Z,999.16
2019-04-10T05:21:32.849Z,999.21
2019-04-10T05:22:31.807Z,999.22
2019-04-10T05:23:31.234Z,999.23
2019-04-10T05:24:32.028Z,999.28
2019-04-10T05:25:31.614Z,999.30
2019-04-10T05:26:32.262Z,999.29
2019-04-10T05:27:31.228Z,999.32
2019-04-10T05:28:31.164Z,999.29
2019-04-10T05:29:31.383Z,999.32
2019-04-10T05:30:31.425Z,999.33
2019-04-10T05:31:32.169Z,999.35
2019-04-10T05:32:31.145Z,999.36
2019-04-10T05:33:31.152Z,999.40
2019-04-10T05:34:31.104Z,999.42
2019-04-10T05:35:31.983Z,999.46
2019-04-10T05:36:31.398Z,999.47
2019-04-10T05:37:31.631Z,999.44
2019-04-10T05:38:31.069Z,999.45
2019-04-10T05:39:42.292Z,999.45
2019-04-10T05:40:33.054Z,999.45
2019-04-10T05:41:31.438Z,999.54
2019-04-10T05:42:31.080Z,999.50
2019-04-10T05:43:31.009Z,999.51
2019-04-10T05:44:31.882Z,999.53
2019-04-10T05:45:31.844Z,999.56
2019-04-10T05:46:30.973Z,999.54
2019-04-10T05:47:30.992Z,999.53
2019-04-10T05:48:31.525Z,999.54
2019-04-10T05:49:31.130Z,999.53
2019-04-10T05:50:32.034Z,999.51
2019-04-10T05:51:30.966Z,999.48
2019-04-10T05:52:30.995Z,999.53
2019-04-10T05:53:30.898Z,999.55
2019-04-10T05:54:31.186Z,999.53
2019-04-10T05:55:31.017Z,999.62
2019-04-10T05:56:31.083Z,999.56
2019-04-10T05:57:30.894Z,999.58
2019-04-10T05:58:31.485Z,999.63
2019-04-10T05:59:30.841Z,999.62
2019-04-10T06:00:30.827Z,999.57
2019-04-10T06:01:35.827Z,999.62
2019-04-10T06:02:32.139Z,999.67
2019-04-10T06:03:30.797Z,999.66
2019-04-10T06:04:31.575Z,999.67
2019-04-10T06:05:31.978Z,999.70
2019-04-10T06:06:30.762Z,999.66
2019-04-10T06:07:30.758Z,999.70
2019-04-10T06:08:31.146Z,999.69
2019-04-10T06:09:31.140Z,999.76
2019-04-10T06:10:30.735Z,999.69
2019-04-10T06:11:31.039Z,999.68
2019-04-10T06:12:30.700Z,999.69
2019-04-10T06:13:30.687Z,999.73
2019-04-10T06:14:30.680Z,999.70
2019-04-10T06:15:30.841Z,999.69
2019-04-10T06:16:30.658Z,999.70
2019-04-10T06:17:30.678Z,999.72
2019-04-10T06:18:31.319Z,999.75
2019-04-10T06:19:30.640Z,999.74
2019-04-10T06:20:31.381Z,999.74
2019-04-10T06:21:31.403Z,999.71
2019-04-10T06:22:30.597Z,999.70
2019-04-10T06:23:31.490Z,999.70
2019-04-10T06:24:30.572Z,999.73
2019-04-10T06:25:31.724Z,999.73
2019-04-10T06:26:32.334Z,999.76
2019-04-10T06:27:30.582Z,999.73
2019-04-10T06:28:31.054Z,999.69
2019-04-10T06:29:30.850Z,999.69
2019-04-10T06:30:30.522Z,999.72
2019-04-10T06:31:30.545Z,999.75
2019-04-10T06:32:31.610Z,999.75
2019-04-10T06:33:30.475Z,999.78
2019-04-10T06:34:30.477Z,999.76
2019-04-10T06:35:30.457Z,999.71
2019-04-10T06:36:30.444Z,999.73
2019-04-10T06:37:30.459Z,999.77
2019-04-10T06:38:30.762Z,999.72
2019-04-10T06:39:31.053Z,999.75
2019-04-10T06:40:30.688Z,999.76
2019-04-10T06:41:30.562Z,999.73
2019-04-10T06:42:32.684Z,999.76
2019-04-10T06:43:31.402Z,999.75
2019-04-10T06:44:30.369Z,999.79
2019-04-10T06:45:31.485Z,999.80
2019-04-10T06:46:30.762Z,999.74
2019-04-10T06:47:30.639Z,999.78
2019-04-10T06:48:30.352Z,999.74
2019-04-10T06:49:31.094Z,999.76
2019-04-10T06:50:31.484Z,999.77
2019-04-10T06:51:31.277Z,999.75
2019-04-10T06:52:30.427Z,999.75
2019-04-10T06:53:31.079Z,999.69
2019-04-10T06:54:30.993Z,999.78
2019-04-10T06:55:30.345Z,999.75
2019-04-10T06:56:31.230Z,999.71
2019-04-10T06:57:30.558Z,999.76
2019-04-10T06:58:30.222Z,999.79
2019-04-10T06:59:30.510Z,999.79
2019-04-10T07:00:30.690Z,999.82
2019-04-10T07:01:40.534Z,999.85
2019-04-10T07:02:33.130Z,999.81
2019-04-10T07:03:46.487Z,999.83
2019-04-10T07:04:43.119Z,999.79
2019-04-10T07:05:39.794Z,999.81
2019-04-10T07:06:47.116Z,999.80
2019-04-10T07:07:46.540Z,999.81
2019-04-10T07:08:31.986Z,999.85
2019-04-10T07:09:30.209Z,999.79
2019-04-10T07:10:44.767Z,999.80
2019-04-10T07:11:32.600Z,999.78
2019-04-10T07:12:33.515Z,999.77
2019-04-10T07:13:30.224Z,999.81
2019-04-10T07:14:30.043Z,999.84
2019-04-10T07:15:30.037Z,999.83
2019-04-10T07:16:32.654Z,999.84
2019-04-10T07:17:30.016Z,999.87
2019-04-10T07:18:30.012Z,999.85
2019-04-10T07:19:30.300Z,999.90
2019-04-10T07:20:29.978Z,999.90
2019-04-10T07:21:30.778Z,999.85
2019-04-10T07:22:31.059Z,999.90
2019-04-10T07:23:31.916Z,999.89
2019-04-10T07:24:34.477Z,999.96
2019-04-10T07:25:31.934Z,999.91
2019-04-10T07:26:37.774Z,999.80
2019-04-10T07:27:34.674Z,999.84
2019-04-10T07:28:30.886Z,999.80
2019-04-10T07:29:30.860Z,999.82
2019-04-10T07:30:29.971Z,999.87
2019-04-10T07:31:30.328Z,999.90
2019-04-10T07:32:29.992Z,999.93
2019-04-10T07:33:30.792Z,999.93
2019-04-10T07:34:30.050Z,999.93
2019-04-10T07:35:33.743Z,999.89
2019-04-10T07:36:30.804Z,999.96
2019-04-10T07:37:29.817Z,999.96
2019-04-10T07:38:30.807Z,999.96
2019-04-10T07:39:33.225Z,999.95
2019-04-10T07:40:33.074Z,999.91
2019-04-10T07:41:31.509Z,999.93
2019-04-10T07:42:35.255Z,999.96
2019-04-10T07:43:30.760Z,999.99
2019-04-10T07:44:29.725Z,999.98
2019-04-10T07:45:29.730Z,1000.00
2019-04-10T07:46:31.122Z,1000.04
2019-04-10T07:47:29.690Z,1000.01
2019-04-10T07:48:29.675Z,1000.03
2019-04-10T07:49:31.242Z,1000.07
2019-04-10T07:50:30.277Z,1000.03
2019-04-10T07:51:29.887Z,1000.02
2019-04-10T07:52:29.671Z,1000.03
2019-04-10T07:53:29.629Z,1000.03
2019-04-10T07:54:30.802Z,1000.01
2019-04-10T07:55:30.585Z,1000.03
2019-04-10T07:56:29.653Z,1000.05
2019-04-10T07:57:30.706Z,1000.06
2019-04-10T07:58:29.591Z,1000.02
2019-04-10T07:59:29.565Z,1000.01
2019-04-10T08:00:29.545Z,1000.04
2019-04-10T08:01:29.551Z,1000.03
2019-04-10T08:02:29.704Z,1000.05
2019-04-10T08:03:29.511Z,1000.09
2019-04-10T08:04:29.524Z,1000.07
2019-04-10T08:05:29.668Z,1000.08
2019-04-10T08:06:29.487Z,1000.09
2019-04-10T08:07:34.172Z,1000.12
2019-04-10T08:08:30.466Z,1000.06
2019-04-10T08:09:29.447Z,1000.08
2019-04-10T08:10:30.583Z,1000.10
2019-04-10T08:11:29.671Z,1000.10
2019-04-10T08:12:39.473Z,1000.12
2019-04-10T08:13:30.906Z,1000.12
2019-04-10T08:14:29.529Z,1000.09
2019-04-10T08:15:29.525Z,1000.13
2019-04-10T08:16:29.392Z,1000.13
2019-04-10T08:17:30.380Z,1000.15
2019-04-10T08:18:29.632Z,1000.12
2019-04-10T08:19:29.520Z,1000.16
2019-04-10T08:20:30.569Z,1000.15
2019-04-10T08:21:29.518Z,1000.16
2019-04-10T08:22:29.316Z,1000.14
2019-04-10T08:23:30.195Z,1000.18
2019-04-10T08:24:29.324Z,1000.20
2019-04-10T08:25:29.284Z,1000.18
2019-04-10T08:26:30.342Z,1000.20
2019-04-10T08:27:29.915Z,1000.21
2019-04-10T08:28:30.636Z,1000.16
2019-04-10T08:29:30.252Z,1000.16
2019-04-10T08:30:30.027Z,1000.18
2019-04-10T08:31:29.217Z,1000.15
2019-04-10T08:32:30.049Z,1000.13
2019-04-10T08:33:30.188Z,1000.18
2019-04-10T08:34:29.178Z,1000.17
2019-04-10T08:35:29.452Z,1000.21
2019-04-10T08:36:29.690Z,1000.21
2019-04-10T08:37:29.408Z,1000.18
2019-04-10T08:38:30.041Z,1000.14
2019-04-10T08:39:38.752Z,1000.16
2019-04-10T08:40:30.125Z,1000.19
2019-04-10T08:41:29.708Z,1000.14
2019-04-10T08:42:29.097Z,1000.13
2019-04-10T08:43:29.591Z,1000.14
2019-04-10T08:44:29.850Z,1000.10
2019-04-10T08:45:40.539Z,1000.10
2019-04-10T08:46:30.259Z,1000.13
2019-04-10T08:47:29.110Z,1000.17
2019-04-10T08:48:30.446Z,1000.16
2019-04-10T08:49:29.023Z,1000.17
2019-04-10T08:50:30.119Z,1000.21
2019-04-10T08:51:29.015Z,1000.22
2019-04-10T08:52:28.985Z,1000.22
2019-04-10T08:53:28.994Z,1000.26
2019-04-10T08:54:29.019Z,1000.27
2019-04-10T08:55:28.956Z,1000.24
2019-04-10T08:56:30.120Z,1000.23
2019-04-10T08:57:29.770Z,1000.26
2019-04-10T08:58:28.929Z,1000.26
2019-04-10T08:59:29.990Z,1000.23
2019-04-10T09:00:29.019Z,1000.25
2019-04-10T09:01:29.301Z,1000.25
2019-04-10T09:02:28.898Z,1000.26
2019-04-10T09:03:28.868Z,1000.26
2019-04-10T09:04:28.877Z,1000.26
2019-04-10T09:05:29.878Z,1000.24
2019-04-10T09:06:28.832Z,1000.23
2019-04-10T09:07:28.822Z,1000.26
2019-04-10T09:08:28.895Z,1000.25
2019-04-10T09:09:29.821Z,1000.23
2019-04-10T09:10:28.795Z,1000.27
2019-04-10T09:11:30.147Z,1000.25
2019-04-10T09:12:29.610Z,1000.25
2019-04-10T09:13:28.759Z,1000.25
2019-04-10T09:14:29.630Z,1000.29
2019-04-10T09:15:29.830Z,1000.29
2019-04-10T09:16:28.864Z,1000.27
2019-04-10T09:17:28.716Z,1000.25
2019-04-10T09:18:29.517Z,1000.28
2019-04-10T09:19:29.877Z,1000.29
2019-04-10T09:20:28.885Z,1000.25
2019-04-10T09:21:28.676Z,1000.22
2019-04-10T09:22:30.118Z,1000.25
2019-04-10T09:23:37.913Z,1000.22
2019-04-10T09:24:30.081Z,1000.23
2019-04-10T09:25:28.640Z,1000.20
2019-04-10T09:26:28.751Z,1000.20
2019-04-10T09:27:28.974Z,1000.19
2019-04-10T09:28:28.629Z,1000.19
2019-04-10T09:29:28.590Z,1000.31
2019-04-10T09:30:28.962Z,1000.24
2019-04-10T09:31:29.460Z,1000.22
2019-04-10T09:32:28.774Z,1000.28
2019-04-10T09:33:30.784Z,1000.21
2019-04-10T09:34:28.643Z,1000.12
2019-04-10T09:35:28.797Z,1000.13
2019-04-10T09:36:29.154Z,1000.13
2019-04-10T09:37:28.499Z,1000.13
2019-04-10T09:38:28.547Z,1000.06
2019-04-10T09:39:29.536Z,1000.12
2019-04-10T09:40:28.487Z,1000.10
2019-04-10T09:41:28.491Z,1000.17
2019-04-10T09:42:28.458Z,1000.08
2019-04-10T09:43:29.538Z,1000.17
2019-04-10T09:44:28.427Z,1000.12
2019-04-10T09:45:28.555Z,1000.18
2019-04-10T09:46:28.864Z,1000.15
2019-04-10T09:47:28.422Z,1000.18
2019-04-10T09:48:28.383Z,1000.12
2019-04-10T09:49:35.696Z,1000.16
2019-04-10T09:50:29.377Z,1000.12
2019-04-10T09:51:28.347Z,1000.16
2019-04-10T09:52:28.357Z,1000.13
2019-04-10T09:53:28.754Z,1000.15
2019-04-10T09:54:28.320Z,1000.17
2019-04-10T09:55:28.307Z,1000.09
2019-04-10T09:56:28.299Z,1000.13
2019-04-10T09:57:28.718Z,1000.08
2019-04-10T09:58:28.271Z,1000.07
2019-04-10T09:59:35.866Z,1000.12
2019-04-10T10:00:29.938Z,1000.06
2019-04-10T10:01:28.802Z,1000.04
2019-04-10T10:02:28.337Z,1000.10
2019-04-10T10:03:28.253Z,1000.14
2019-04-10T10:04:29.213Z,1000.16
2019-04-10T10:05:28.618Z,1000.14
2019-04-10T10:06:32.104Z,1000.13
2019-04-10T10:07:29.177Z,1000.11
2019-04-10T10:08:28.886Z,1000.13
2019-04-10T10:09:29.243Z,1000.18
2019-04-10T10:10:29.032Z,1000.23
2019-04-10T10:11:28.682Z,1000.20
2019-04-10T10:12:28.145Z,1000.20
2019-04-10T10:13:28.119Z,1000.15
2019-04-10T10:14:28.621Z,1000.13
2019-04-10T10:15:29.143Z,1000.05
2019-04-10T10:16:30.172Z,1000.13
2019-04-10T10:17:28.570Z,1000.17
2019-04-10T10:18:28.078Z,1000.07
2019-04-10T10:19:28.051Z,1000.13
2019-04-10T10:20:29.208Z,1000.14
2019-04-10T10:21:28.356Z,1000.20
2019-04-10T10:22:28.009Z,1000.13
2019-04-10T10:23:28.001Z,1000.14
2019-04-10T10:24:28.877Z,1000.12
2019-04-10T10:25:28.915Z,1000.12
2019-04-10T10:26:28.211Z,1000.19
2019-04-10T10:27:27.979Z,1000.14
2019-04-10T10:28:29.112Z,1000.13
2019-04-10T10:29:28.123Z,1000.10
2019-04-10T10:30:27.927Z,1000.08
2019-04-10T10:31:28.466Z,1000.14
2019-04-10T10:32:28.930Z,1000.11
2019-04-10T10:33:27.981Z,1000.17
2019-04-10T10:34:28.281Z,1000.29
2019-04-10T10:35:27.878Z,1000.18
2019-04-10T10:36:36.668Z,1000.19
2019-04-10T10:37:28.871Z,1000.18
2019-04-10T10:38:27.872Z,1000.22
2019-04-10T10:39:28.578Z,1000.25
2019-04-10T10:40:27.835Z,1000.27
2019-04-10T10:41:27.804Z,1000.18
2019-04-10T10:42:27.823Z,1000.20
2019-04-10T10:43:28.815Z,1000.19
2019-04-10T10:44:27.951Z,1000.23
2019-04-10T10:45:28.988Z,1000.21
2019-04-10T10:46:27.758Z,1000.18
2019-04-10T10:47:29.066Z,1000.26
2019-04-10T10:48:27.752Z,1000.17
2019-04-10T10:49:28.584Z,1000.19
2019-04-10T10:50:28.922Z,1000.24
2019-04-10T10:51:28.892Z,1000.20
2019-04-10T10:52:27.844Z,1000.28
2019-04-10T10:53:28.275Z,1000.18
2019-04-10T10:54:27.926Z,1000.21
2019-04-10T10:55:27.656Z,1000.23
2019-04-10T10:56:28.622Z,1000.21
2019-04-10T10:57:27.658Z,1000.25
2019-04-10T10:58:27.972Z,1000.21
2019-04-10T10:59:27.644Z,1000.22
2019-04-10T11:00:27.649Z,1000.17
2019-04-10T11:01:27.642Z,1000.19
2019-04-10T11:02:27.734Z,1000.16
2019-04-10T11:03:27.589Z,1000.27
2019-04-10T11:04:27.561Z,1000.25
2019-04-10T11:05:30.343Z,1000.21
2019-04-10T11:06:27.537Z,1000.15
2019-04-10T11:07:28.733Z,1000.14
2019-04-10T11:08:27.520Z,1000.17
2019-04-10T11:09:28.509Z,1000.13
2019-04-10T11:10:27.697Z,1000.07
2019-04-10T11:11:28.238Z,1000.08
2019-04-10T11:12:28.081Z,1000.16
2019-04-10T11:13:27.475Z,1000.14
2019-04-10T11:14:27.754Z,1000.13
2019-04-10T11:15:27.855Z,1000.25
2019-04-10T11:16:27.444Z,1000.26
2019-04-10T11:17:28.224Z,1000.36
2019-04-10T11:18:28.549Z,1000.40
2019-04-10T11:19:27.399Z,1000.36
2019-04-10T11:20:28.085Z,1000.44
2019-04-10T11:21:27.512Z,1000.42
2019-04-10T11:22:27.373Z,1000.33
2019-04-10T11:23:28.454Z,1000.36
2019-04-10T11:24:27.342Z,1000.38
2019-04-10T11:25:28.652Z,1000.30
2019-04-10T11:26:27.651Z,1000.18
2019-04-10T11:27:28.070Z,1000.17
2019-04-10T11:28:30.218Z,1000.21
2019-04-10T11:29:27.293Z,1000.14
2019-04-10T11:30:28.605Z,1000.11
2019-04-10T11:31:27.270Z,1000.21
2019-04-10T11:32:28.872Z,1000.20
2019-04-10T11:33:27.324Z,1000.20
2019-04-10T11:34:29.079Z,1000.22
2019-04-10T11:35:27.249Z,1000.26
2019-04-10T11:36:28.214Z,1000.25
2019-04-10T11:37:37.328Z,1000.25
2019-04-10T11:38:29.060Z,1000.43
2019-04-10T11:39:29.376Z,1000.48
2019-04-10T11:40:27.981Z,1000.56
2019-04-10T11:41:29.517Z,1000.48
2019-04-10T11:42:28.821Z,1000.67
2019-04-10T11:43:27.902Z,1000.69
2019-04-10T11:44:28.107Z,1000.69
2019-04-10T11:45:29.121Z,1000.63
2019-04-10T11:46:31.400Z,1000.67
2019-04-10T11:47:29.022Z,1000.68
2019-04-10T11:48:29.094Z,1000.54
2019-04-10T11:49:27.796Z,1000.63
2019-04-10T11:50:28.573Z,1000.62
2019-04-10T11:51:30.264Z,1000.68
2019-04-10T11:52:33.801Z,1000.66
2019-04-10T11:53:28.527Z,1000.63
2019-04-10T11:54:29.904Z,1000.65
2019-04-10T11:55:27.849Z,1000.68
2019-04-10T11:56:30.146Z,1000.63
2019-04-10T11:57:30.207Z,1000.58
2019-04-10T11:58:29.030Z,1000.53
2019-04-10T11:59:28.952Z,1000.39
2019-04-10T12:00:30.121Z,1000.38
2019-04-10T12:01:28.053Z,1000.32
2019-04-10T12:02:28.272Z,1000.28
2019-04-10T12:03:27.231Z,1000.31
2019-04-10T12:04:29.524Z,1000.37
2019-04-10T12:05:29.137Z,1000.29
2019-04-10T12:06:30.921Z,1000.46
2019-04-10T12:07:55.064Z,1000.47
2019-04-10T12:08:50.206Z,1000.50
2019-04-10T12:11:28.610Z,1000.41
2019-04-10T12:12:27.942Z,1000.41
2019-04-10T12:13:26.826Z,1000.40
2019-04-10T12:14:27.883Z,1000.45
2019-04-10T12:15:26.800Z,1000.47
2019-04-10T12:16:27.265Z,1000.41
2019-04-10T12:17:27.726Z,1000.40
2019-04-10T12:18:26.833Z,1000.44
2019-04-10T12:19:27.010Z,1000.45
2019-04-10T12:20:27.104Z,1000.47
2019-04-10T12:21:26.750Z,1000.45